Time;durP1;ratioP1;P1;durP2;ratioP2;P2;SDS_P1;SDS_P2;PMS_P1;PMS_P2;Temp;Humidity;BMP_temperature;BMP_pressure;BME280_temperature;BME280_humidity;BME280_pressure;Samples;Min_cycle;Max_cycle;Signal;HPM_P1;HPM_P2
2023/12/13 00:00:50;;;;;;;72.60;17.95;;;;;;;;;;5028454;28;20418;-81
2023/12/13 00:03:16;;;;;;;76.70;16.17;;;;;;;;;;5028465;28;20017;-81
2023/12/13 00:05:42;;;;;;;67.68;16.65;;;;;;;;;;5029345;28;20359;-81
2023/12/13 00:08:08;;;;;;;59.28;16.00;;;;;;;;;;5010019;28;20093;-81
2023/12/13 00:10:34;;;;;;;63.85;15.90;;;;;;;;;;5009859;28;20048;-81
2023/12/13 00:13:02;;;;;;;64.72;17.00;;;;;;;;;;5025458;28;20018;-81
2023/12/13 00:15:28;;;;;;;60.58;16.90;;;;;;;;;;5023670;28;20104;-81
2023/12/13 00:17:56;;;;;;;66.30;16.67;;;;;;;;;;5023650;28;20037;-82
2023/12/13 00:20:22;;;;;;;70.72;18.92;;;;;;;;;;5027879;28;20021;-80
2023/12/13 00:22:48;;;;;;;66.55;17.63;;;;;;;;;;5014863;28;20009;-82
2023/12/13 00:25:14;;;;;;;70.20;18.63;;;;;;;;;;5009233;28;20393;-81
2023/12/13 00:27:40;;;;;;;75.78;19.17;;;;;;;;;;5022505;28;20079;-82
2023/12/13 00:30:06;;;;;;;57.88;17.08;;;;;;;;;;5027976;28;20010;-82
2023/12/13 00:32:32;;;;;;;72.95;19.00;;;;;;;;;;5028730;28;20044;-82
2023/12/13 00:34:58;;;;;;;69.50;18.90;;;;;;;;;;5029283;28;20021;-81
2023/12/13 00:37:24;;;;;;;73.32;19.38;;;;;;;;;;5017674;28;20276;-81
2023/12/13 00:39:50;;;;;;;73.85;19.70;;;;;;;;;;5009145;28;20018;-81
2023/12/13 00:42:16;;;;;;;76.25;20.35;;;;;;;;;;5016536;28;20017;-81
2023/12/13 00:44:43;;;;;;;71.53;19.63;;;;;;;;;;5027155;28;20020;-82
2023/12/13 00:47:09;;;;;;;79.95;19.48;;;;;;;;;;5018658;28;20493;-81
2023/12/13 00:49:35;;;;;;;70.60;20.27;;;;;;;;;;5028015;28;20017;-81
2023/12/13 00:52:02;;;;;;;74.85;20.33;;;;;;;;;;5027746;28;20032;-82
2023/12/13 00:54:28;;;;;;;77.75;19.85;;;;;;;;;;5029122;28;20010;-81
2023/12/13 00:56:54;;;;;;;80.28;19.10;;;;;;;;;;5022491;28;20029;-82
2023/12/13 00:59:20;;;;;;;70.63;18.65;;;;;;;;;;5007910;28;20025;-81
2023/12/13 01:01:47;;;;;;;64.25;17.73;;;;;;;;;;5011660;28;20017;-81
2023/12/13 01:04:13;;;;;;;59.05;16.88;;;;;;;;;;5027505;28;20256;-81
2023/12/13 01:06:39;;;;;;;57.80;16.65;;;;;;;;;;5027501;28;20022;-82
2023/12/13 01:09:05;;;;;;;67.05;15.80;;;;;;;;;;5008489;28;20014;-81
2023/12/13 01:11:31;;;;;;;47.05;14.45;;;;;;;;;;5007944;28;20014;-82
2023/12/13 01:13:57;;;;;;;61.97;15.05;;;;;;;;;;5023657;28;20045;-81
2023/12/13 01:16:23;;;;;;;54.10;14.52;;;;;;;;;;5026497;28;20057;-81
2023/12/13 01:18:49;;;;;;;45.40;13.27;;;;;;;;;;5027180;28;20026;-82
2023/12/13 01:21:16;;;;;;;51.92;14.10;;;;;;;;;;5028659;28;20123;-81
2023/12/13 01:23:42;;;;;;;48.53;13.10;;;;;;;;;;5019040;28;20034;-81
2023/12/13 01:26:08;;;;;;;48.05;11.73;;;;;;;;;;5007721;28;20038;-81
2023/12/13 01:28:34;;;;;;;45.65;13.00;;;;;;;;;;5026626;28;20108;-81
2023/12/13 01:31:00;;;;;;;49.10;13.07;;;;;;;;;;5031155;28;20106;-81
2023/12/13 01:33:26;;;;;;;48.25;12.55;;;;;;;;;;5031253;28;20491;-81
2023/12/13 01:35:52;;;;;;;45.60;12.30;;;;;;;;;;5031167;28;20112;-81
2023/12/13 01:38:18;;;;;;;53.83;13.27;;;;;;;;;;5020607;28;20025;-81
2023/12/13 01:40:50;;;;;;;48.00;12.93;;;;;;;;;;5011328;28;20402;-81
2023/12/13 01:43:23;;;;;;;50.03;13.02;;;;;;;;;;5023738;28;20021;-82
2023/12/13 01:45:51;;;;;;;44.92;11.68;;;;;;;;;;5032386;28;20025;-81
2023/12/13 01:48:17;;;;;;;50.83;12.40;;;;;;;;;;5020250;28;20014;-82
2023/12/13 01:50:43;;;;;;;48.40;11.68;;;;;;;;;;5011288;28;20129;-81
2023/12/13 01:53:10;;;;;;;47.67;12.48;;;;;;;;;;5020455;28;20112;-82
2023/12/13 01:55:36;;;;;;;47.00;12.55;;;;;;;;;;5031090;28;20045;-82
2023/12/13 01:58:04;;;;;;;51.05;13.30;;;;;;;;;;5023286;28;20045;-82
2023/12/13 02:00:30;;;;;;;46.83;11.88;;;;;;;;;;5012050;28;20080;-81
2023/12/13 02:02:57;;;;;;;41.85;11.30;;;;;;;;;;5018612;28;20017;-81
2023/12/13 02:05:26;;;;;;;45.65;12.38;;;;;;;;;;5012403;28;20117;-81
2023/12/13 02:07:52;;;;;;;43.25;11.70;;;;;;;;;;5015153;28;20014;-81
2023/12/13 02:10:18;;;;;;;43.65;11.93;;;;;;;;;;5020632;28;20010;-80
2023/12/13 02:12:45;;;;;;;45.47;10.85;;;;;;;;;;5018925;28;20017;-81
2023/12/13 02:15:11;;;;;;;41.55;10.90;;;;;;;;;;5029945;28;20017;-82
2023/12/13 02:17:38;;;;;;;47.38;11.00;;;;;;;;;;5018291;28;20095;-82
2023/12/13 02:20:04;;;;;;;39.70;10.65;;;;;;;;;;5030899;28;20039;-82
2023/12/13 02:22:31;;;;;;;41.42;10.60;;;;;;;;;;5030366;28;20049;-81
2023/12/13 02:24:59;;;;;;;39.78;11.25;;;;;;;;;;5010713;28;20375;-82
2023/12/13 02:27:29;;;;;;;39.42;10.93;;;;;;;;;;5022365;28;20036;-81
2023/12/13 02:29:55;;;;;;;45.65;11.00;;;;;;;;;;5030650;28;20056;-81
2023/12/13 02:32:21;;;;;;;42.13;10.80;;;;;;;;;;5031448;28;20060;-82
2023/12/13 02:34:47;;;;;;;36.22;9.80;;;;;;;;;;5011567;28;20010;-82
2023/12/13 02:37:13;;;;;;;42.80;11.05;;;;;;;;;;5011686;28;20478;-82
2023/12/13 02:39:39;;;;;;;45.10;11.13;;;;;;;;;;5027026;28;20104;-81
2023/12/13 02:42:05;;;;;;;39.50;10.85;;;;;;;;;;5029931;28;20039;-82
2023/12/13 02:44:31;;;;;;;37.10;11.05;;;;;;;;;;5031207;28;20044;-82
2023/12/13 02:46:59;;;;;;;41.65;11.68;;;;;;;;;;5015899;28;20033;-83
2023/12/13 02:49:25;;;;;;;38.13;10.55;;;;;;;;;;5024750;28;20014;-83
2023/12/13 02:51:51;;;;;;;38.33;10.77;;;;;;;;;;5031110;28;20096;-83
2023/12/13 02:54:17;;;;;;;31.98;9.95;;;;;;;;;;5028765;28;20113;-82
2023/12/13 02:56:43;;;;;;;34.65;10.57;;;;;;;;;;5030780;28;20080;-82
2023/12/13 02:59:09;;;;;;;32.33;10.63;;;;;;;;;;5029630;28;20473;-83
2023/12/13 03:01:35;;;;;;;35.50;10.35;;;;;;;;;;5029629;28;20340;-83
2023/12/13 03:04:02;;;;;;;35.17;11.18;;;;;;;;;;5020367;28;20382;-83
2023/12/13 03:06:28;;;;;;;36.35;10.77;;;;;;;;;;5011961;28;20129;-82
2023/12/13 03:08:54;;;;;;;38.47;11.13;;;;;;;;;;5018470;28;20576;-83
2023/12/13 03:11:20;;;;;;;33.85;10.45;;;;;;;;;;5025116;28;20093;-83
2023/12/13 03:13:46;;;;;;;37.58;10.98;;;;;;;;;;5018569;28;20017;-83
2023/12/13 03:16:12;;;;;;;37.10;11.00;;;;;;;;;;5021344;28;20497;-83
2023/12/13 03:18:38;;;;;;;36.00;11.50;;;;;;;;;;5013003;28;20021;-83
2023/12/13 03:21:04;;;;;;;35.28;11.13;;;;;;;;;;5009520;28;20025;-83
2023/12/13 03:23:30;;;;;;;34.63;11.73;;;;;;;;;;5013763;28;20067;-82
2023/12/13 03:25:56;;;;;;;36.85;10.65;;;;;;;;;;5013006;28;20064;-83
2023/12/13 03:28:22;;;;;;;42.30;11.35;;;;;;;;;;5012052;28;20018;-83
2023/12/13 03:30:48;;;;;;;40.45;11.45;;;;;;;;;;5028154;28;20014;-83
2023/12/13 03:33:14;;;;;;;41.97;11.32;;;;;;;;;;5010131;28;20018;-82
2023/12/13 03:35:40;;;;;;;41.33;11.20;;;;;;;;;;5030005;28;20148;-83
2023/12/13 03:38:07;;;;;;;44.58;11.80;;;;;;;;;;5025602;28;20071;-83
2023/12/13 03:40:33;;;;;;;44.10;12.70;;;;;;;;;;5011709;28;20014;-83
2023/12/13 03:43:00;;;;;;;41.13;11.40;;;;;;;;;;5010037;28;20025;-82
2023/12/13 03:45:26;;;;;;;44.47;14.32;;;;;;;;;;5026983;28;20021;-83
2023/12/13 03:47:52;;;;;;;42.53;12.35;;;;;;;;;;5028655;28;20465;-82
2023/12/13 03:50:18;;;;;;;48.60;13.60;;;;;;;;;;5028509;28;20029;-83
2023/12/13 03:52:44;;;;;;;38.42;11.95;;;;;;;;;;5021259;28;20100;-82
2023/12/13 03:55:12;;;;;;;48.33;12.95;;;;;;;;;;5028465;28;20185;-83
2023/12/13 03:57:38;;;;;;;51.17;14.18;;;;;;;;;;5027248;28;20109;-82
2023/12/13 04:00:06;;;;;;;55.83;14.52;;;;;;;;;;5024304;28;20104;-83
2023/12/13 04:02:32;;;;;;;57.75;15.00;;;;;;;;;;5019584;28;20494;-81
2023/12/13 04:04:58;;;;;;;58.50;15.30;;;;;;;;;;5025765;28;20521;-83
2023/12/13 04:07:24;;;;;;;58.33;14.85;;;;;;;;;;5029536;28;20021;-82
2023/12/13 04:09:50;;;;;;;53.97;16.27;;;;;;;;;;5022683;28;20017;-82
2023/12/13 04:12:17;;;;;;;63.25;15.43;;;;;;;;;;5027983;28;20108;-82
2023/12/13 04:14:43;;;;;;;59.45;16.35;;;;;;;;;;5028214;28;20018;-83
2023/12/13 04:17:09;;;;;;;64.38;16.92;;;;;;;;;;5027809;28;20099;-83
2023/12/13 04:19:35;;;;;;;62.58;16.30;;;;;;;;;;5028843;28;20056;-82
2023/12/13 04:22:01;;;;;;;60.72;15.98;;;;;;;;;;5022765;28;20323;-82
2023/12/13 04:24:27;;;;;;;61.03;16.52;;;;;;;;;;5014357;28;20025;-83
2023/12/13 04:26:53;;;;;;;54.30;15.10;;;;;;;;;;5020484;28;20477;-82
2023/12/13 04:29:19;;;;;;;61.05;16.00;;;;;;;;;;5023024;28;20044;-83
2023/12/13 04:31:45;;;;;;;60.20;16.33;;;;;;;;;;5013961;28;20366;-83
2023/12/13 04:34:11;;;;;;;57.70;17.27;;;;;;;;;;5027760;28;20104;-82
2023/12/13 04:36:37;;;;;;;57.10;16.55;;;;;;;;;;5023646;28;20397;-82
2023/12/13 04:39:03;;;;;;;61.78;17.65;;;;;;;;;;5019358;28;20022;-82
2023/12/13 04:41:29;;;;;;;67.68;19.02;;;;;;;;;;5009103;28;20026;-82
2023/12/13 04:43:55;;;;;;;66.20;17.40;;;;;;;;;;5028973;28;20020;-82
2023/12/13 04:46:21;;;;;;;122.63;22.27;;;;;;;;;;5016513;28;20385;-82
2023/12/13 04:48:47;;;;;;;68.18;18.13;;;;;;;;;;5013684;28;20010;-82
2023/12/13 04:51:13;;;;;;;64.00;18.00;;;;;;;;;;5021508;28;20020;-81
2023/12/13 04:53:39;;;;;;;53.20;17.40;;;;;;;;;;5019939;28;20017;-81
2023/12/13 04:56:05;;;;;;;64.70;18.23;;;;;;;;;;5016588;28;20544;-83
2023/12/13 04:58:31;;;;;;;65.40;17.63;;;;;;;;;;5024987;28;20024;-82
2023/12/13 05:00:57;;;;;;;75.40;18.05;;;;;;;;;;5016891;28;20021;-83
2023/12/13 05:03:23;;;;;;;73.75;19.42;;;;;;;;;;5019845;28;20022;-82
2023/12/13 05:05:49;;;;;;;78.57;20.10;;;;;;;;;;5017880;28;20496;-83
2023/12/13 05:08:15;;;;;;;77.13;20.33;;;;;;;;;;5027720;28;20018;-83
2023/12/13 05:10:43;;;;;;;79.88;18.92;;;;;;;;;;5021513;28;20591;-83
2023/12/13 05:13:09;;;;;;;70.75;18.45;;;;;;;;;;5008956;28;20016;-83
2023/12/13 05:15:35;;;;;;;77.80;19.20;;;;;;;;;;5013632;28;20025;-83
2023/12/13 05:18:01;;;;;;;81.50;19.48;;;;;;;;;;5027455;28;20429;-83
2023/12/13 05:20:27;;;;;;;76.22;19.42;;;;;;;;;;5022914;28;20109;-83
2023/12/13 05:22:53;;;;;;;86.10;19.08;;;;;;;;;;5007821;28;20442;-83
2023/12/13 05:25:20;;;;;;;84.03;19.90;;;;;;;;;;5008264;28;20017;-83
2023/12/13 05:27:46;;;;;;;74.70;18.00;;;;;;;;;;5028796;28;20022;-83
2023/12/13 05:30:12;;;;;;;87.72;19.48;;;;;;;;;;5027107;28;20013;-83
2023/12/13 05:32:38;;;;;;;80.18;18.38;;;;;;;;;;5012631;28;20093;-82
2023/12/13 05:35:04;;;;;;;85.93;19.60;;;;;;;;;;5014259;28;20014;-82
2023/12/13 05:37:30;;;;;;;76.22;18.30;;;;;;;;;;5027445;28;20010;-82
2023/12/13 05:39:56;;;;;;;84.90;19.77;;;;;;;;;;5027681;28;20385;-82
2023/12/13 05:42:22;;;;;;;90.28;21.60;;;;;;;;;;5010179;28;20026;-82
2023/12/13 05:44:48;;;;;;;84.90;19.60;;;;;;;;;;5007762;28;20033;-82
2023/12/13 05:47:14;;;;;;;87.78;20.83;;;;;;;;;;5024080;28;20033;-82
2023/12/13 05:49:40;;;;;;;93.15;19.77;;;;;;;;;;5018783;28;20532;-82
2023/12/13 05:52:06;;;;;;;87.43;20.20;;;;;;;;;;5027077;28;20026;-82
2023/12/13 05:54:33;;;;;;;78.18;18.67;;;;;;;;;;5028552;28;20355;-82
2023/12/13 05:56:59;;;;;;;77.30;19.20;;;;;;;;;;5013214;28;20051;-82
2023/12/13 05:59:25;;;;;;;82.95;19.20;;;;;;;;;;5017938;28;20531;-82
2023/12/13 06:01:51;;;;;;;81.75;18.13;;;;;;;;;;5028446;28;20021;-82
2023/12/13 06:04:17;;;;;;;82.90;19.02;;;;;;;;;;5027031;28;20071;-82
2023/12/13 06:06:44;;;;;;;84.78;19.42;;;;;;;;;;5016173;28;20038;-81
2023/12/13 06:09:10;;;;;;;68.78;20.20;;;;;;;;;;5007415;28;20536;-82
2023/12/13 06:11:36;;;;;;;82.20;19.13;;;;;;;;;;5027089;28;20390;-82
2023/12/13 06:14:02;;;;;;;78.53;18.80;;;;;;;;;;5028524;28;20064;-82
2023/12/13 06:16:28;;;;;;;82.53;18.75;;;;;;;;;;5022396;28;20054;-82
2023/12/13 06:18:54;;;;;;;75.32;17.73;;;;;;;;;;5010663;28;20105;-82
2023/12/13 06:21:20;;;;;;;81.40;17.65;;;;;;;;;;5017110;28;20184;-83
2023/12/13 06:23:46;;;;;;;79.60;17.60;;;;;;;;;;5031834;28;20131;-85
2023/12/13 06:26:13;;;;;;;77.07;17.33;;;;;;;;;;5022769;28;20517;-80
2023/12/13 06:28:39;;;;;;;74.75;18.40;;;;;;;;;;5009200;28;20474;-83
2023/12/13 06:31:05;;;;;;;80.10;18.50;;;;;;;;;;5009172;28;20032;-83
2023/12/13 06:33:31;;;;;;;82.82;18.10;;;;;;;;;;5011101;28;20009;-83
2023/12/13 06:35:57;;;;;;;87.72;17.52;;;;;;;;;;5008672;28;20014;-82
2023/12/13 06:38:23;;;;;;;72.57;17.60;;;;;;;;;;5006852;28;20416;-83
2023/12/13 06:40:49;;;;;;;82.63;17.48;;;;;;;;;;5003896;28;20472;-82
2023/12/13 06:43:15;;;;;;;70.95;17.23;;;;;;;;;;5006679;28;20034;-83
2023/12/13 06:45:41;;;;;;;85.32;17.90;;;;;;;;;;5009851;28;20109;-83
2023/12/13 06:48:07;;;;;;;87.38;18.67;;;;;;;;;;5028182;28;20113;-83
2023/12/13 06:50:33;;;;;;;79.78;17.35;;;;;;;;;;5029890;28;20043;-83
2023/12/13 06:53:00;;;;;;;85.15;18.27;;;;;;;;;;5029336;28;20022;-83
2023/12/13 06:55:26;;;;;;;86.78;18.38;;;;;;;;;;5029823;28;20025;-83
2023/12/13 06:57:52;;;;;;;88.80;17.52;;;;;;;;;;5030794;28;20516;-83
2023/12/13 07:00:26;;;;;;;74.65;18.00;;;;;;;;;;5012471;28;20049;-83
2023/12/13 07:02:52;;;;;;;78.95;18.95;;;;;;;;;;5025399;28;20113;-82
2023/12/13 07:05:19;;;;;;;88.97;18.70;;;;;;;;;;5029926;28;20097;-81
2023/12/13 07:07:46;;;;;;;119.13;20.58;;;;;;;;;;5016107;28;20122;-82
2023/12/13 07:10:13;;;;;;;96.50;19.17;;;;;;;;;;5011077;28;20041;-82
2023/12/13 07:12:40;;;;;;;75.88;18.27;;;;;;;;;;5020351;28;20052;-82
2023/12/13 07:15:07;;;;;;;79.05;18.10;;;;;;;;;;5029423;28;20016;-83
2023/12/13 07:17:33;;;;;;;77.65;18.23;;;;;;;;;;5028151;28;20148;-83
2023/12/13 07:19:59;;;;;;;77.45;17.55;;;;;;;;;;5025323;28;20116;-82
2023/12/13 07:22:25;;;;;;;93.20;20.08;;;;;;;;;;5009734;28;20385;-82
2023/12/13 07:24:51;;;;;;;91.18;18.42;;;;;;;;;;5019120;28;20401;-82
2023/12/13 07:27:17;;;;;;;88.32;20.25;;;;;;;;;;5016104;28;20504;-83
2023/12/13 07:29:43;;;;;;;81.55;18.85;;;;;;;;;;5018792;28;20057;-85
2023/12/13 07:32:10;;;;;;;87.25;19.08;;;;;;;;;;5027607;28;20083;-85
2023/12/13 07:34:41;;;;;;;75.20;20.00;;;;;;;;;;5009300;28;20443;-78
2023/12/13 07:37:07;;;;;;;77.00;17.98;;;;;;;;;;5010982;28;20018;-78
2023/12/13 07:39:35;;;;;;;95.15;19.05;;;;;;;;;;5030051;28;20390;-79
2023/12/13 07:42:01;;;;;;;73.95;19.40;;;;;;;;;;5028135;28;20017;-80
2023/12/13 07:44:28;;;;;;;81.38;18.30;;;;;;;;;;5008780;28;20026;-79
2023/12/13 07:46:54;;;;;;;73.72;18.30;;;;;;;;;;5008782;28;20187;-80
2023/12/13 07:49:20;;;;;;;76.28;18.25;;;;;;;;;;5019764;28;20042;-79
2023/12/13 07:51:46;;;;;;;77.85;19.92;;;;;;;;;;5013186;28;20088;-79
2023/12/13 07:54:16;;;;;;;68.30;18.38;;;;;;;;;;5012617;28;20018;-79
2023/12/13 07:56:42;;;;;;;76.25;18.85;;;;;;;;;;5010082;28;20294;-79
2023/12/13 07:59:07;;;;;;;75.28;18.77;;;;;;;;;;5024815;28;20021;-79
2023/12/13 08:01:35;;;;;;;86.47;19.77;;;;;;;;;;5028213;28;20466;-85
2023/12/13 08:04:01;;;;;;;80.45;19.42;;;;;;;;;;5029084;28;20018;-82
2023/12/13 08:06:27;;;;;;;79.15;19.52;;;;;;;;;;5029342;28;20255;-79
2023/12/13 08:08:53;;;;;;;79.20;18.98;;;;;;;;;;5024176;28;20018;-78
2023/12/13 08:11:19;;;;;;;75.28;19.27;;;;;;;;;;5010287;28;20063;-79
2023/12/13 08:13:45;;;;;;;81.10;19.92;;;;;;;;;;5006703;28;20627;-78
2023/12/13 08:16:11;;;;;;;84.28;19.95;;;;;;;;;;5006937;28;20444;-79
2023/12/13 08:18:37;;;;;;;88.63;20.85;;;;;;;;;;5007325;28;20022;-78
2023/12/13 08:21:06;;;;;;;82.72;19.63;;;;;;;;;;5007878;28;20045;-79
2023/12/13 08:23:32;;;;;;;82.20;21.52;;;;;;;;;;5010826;28;20018;-79
2023/12/13 08:25:58;;;;;;;73.43;20.60;;;;;;;;;;5002807;28;20026;-79
2023/12/13 08:28:24;;;;;;;78.43;20.25;;;;;;;;;;5009788;28;20367;-78
2023/12/13 08:30:52;;;;;;;71.78;19.42;;;;;;;;;;5009970;28;20258;-78
2023/12/13 08:33:18;;;;;;;73.28;20.80;;;;;;;;;;5014587;28;20100;-78
2023/12/13 08:35:44;;;;;;;79.05;19.27;;;;;;;;;;5015774;28;20033;-79
2023/12/13 08:38:10;;;;;;;72.55;21.23;;;;;;;;;;5006850;28;20010;-78
2023/12/13 08:40:36;;;;;;;74.35;20.45;;;;;;;;;;5004240;28;20029;-79
2023/12/13 08:43:02;;;;;;;76.10;18.65;;;;;;;;;;5008845;28;20014;-79
2023/12/13 08:45:28;;;;;;;76.20;19.15;;;;;;;;;;5008620;28;20032;-78
2023/12/13 08:47:54;;;;;;;83.32;20.52;;;;;;;;;;5012450;28;20064;-79
2023/12/13 08:50:20;;;;;;;73.60;19.00;;;;;;;;;;5026818;28;20089;-78
2023/12/13 08:52:46;;;;;;;68.90;18.17;;;;;;;;;;5029071;28;20009;-79
2023/12/13 08:55:12;;;;;;;74.35;18.27;;;;;;;;;;5028272;28;20024;-76
2023/12/13 08:57:38;;;;;;;67.45;18.13;;;;;;;;;;5028037;28;20037;-78
2023/12/13 09:00:06;;;;;;;75.43;18.60;;;;;;;;;;5022396;28;20029;-78
2023/12/13 09:02:32;;;;;;;84.50;19.35;;;;;;;;;;5023521;28;20027;-78
2023/12/13 09:04:58;;;;;;;79.25;20.27;;;;;;;;;;5017038;28;20105;-78
2023/12/13 09:07:24;;;;;;;70.97;18.45;;;;;;;;;;5008070;28;20516;-78
2023/12/13 09:09:50;;;;;;;78.15;18.38;;;;;;;;;;5021986;28;20010;-78
2023/12/13 09:12:16;;;;;;;75.53;19.55;;;;;;;;;;5026200;28;20024;-78
2023/12/13 09:14:45;;;;;;;76.97;18.88;;;;;;;;;;5010212;28;20017;-78
2023/12/13 09:17:11;;;;;;;79.15;20.63;;;;;;;;;;5007644;28;20050;-78
2023/12/13 09:19:40;;;;;;;76.18;20.10;;;;;;;;;;5016417;28;20021;-78
2023/12/13 09:22:06;;;;;;;77.38;19.27;;;;;;;;;;5006471;28;20040;-78
2023/12/13 09:24:32;;;;;;;72.35;18.95;;;;;;;;;;5017747;28;20556;-78
2023/12/13 09:26:58;;;;;;;71.45;18.70;;;;;;;;;;5027374;28;20117;-78
2023/12/13 09:29:24;;;;;;;74.15;19.23;;;;;;;;;;5011983;28;20024;-78
2023/12/13 09:31:50;;;;;;;77.97;20.65;;;;;;;;;;5007078;28;20473;-78
2023/12/13 09:34:16;;;;;;;71.50;20.33;;;;;;;;;;5021696;28;20273;-77
2023/12/13 09:36:42;;;;;;;70.05;20.27;;;;;;;;;;5026402;28;20061;-78
2023/12/13 09:39:08;;;;;;;70.70;20.67;;;;;;;;;;5028575;28;20469;-78
2023/12/13 09:41:38;;;;;;;70.32;19.92;;;;;;;;;;5028717;28;20026;-77
2023/12/13 09:44:04;;;;;;;82.32;20.92;;;;;;;;;;5023848;28;20113;-78
2023/12/13 09:46:30;;;;;;;76.00;20.13;;;;;;;;;;5003060;28;20066;-79
2023/12/13 09:48:57;;;;;;;69.90;20.17;;;;;;;;;;5013837;28;20049;-79
2023/12/13 09:51:23;;;;;;;66.78;18.80;;;;;;;;;;5022635;28;20037;-79
2023/12/13 09:53:49;;;;;;;80.95;20.98;;;;;;;;;;5019085;28;20409;-79
2023/12/13 09:56:15;;;;;;;73.18;19.55;;;;;;;;;;5010746;28;20025;-78
2023/12/13 09:58:42;;;;;;;70.60;20.42;;;;;;;;;;5009557;28;20026;-79
2023/12/13 10:01:12;;;;;;;69.38;20.77;;;;;;;;;;5030832;28;20022;-79
2023/12/13 10:03:42;;;;;;;78.13;22.42;;;;;;;;;;5030202;28;20099;-79
2023/12/13 10:06:09;;;;;;;84.28;21.02;;;;;;;;;;4991302;28;20030;-78
2023/12/13 10:08:35;;;;;;;78.85;20.65;;;;;;;;;;5006309;28;20023;-79
2023/12/13 10:11:05;;;;;;;76.80;21.52;;;;;;;;;;5043541;28;20034;-79
2023/12/13 10:13:31;;;;;;;77.50;21.80;;;;;;;;;;5030693;28;20014;-79
2023/12/13 10:16:09;;;;;;;74.70;21.00;;;;;;;;;;5011640;28;20048;-79
2023/12/13 10:18:35;;;;;;;74.72;21.55;;;;;;;;;;5009579;28;20068;-79
2023/12/13 10:21:01;;;;;;;70.70;21.77;;;;;;;;;;5027150;28;20108;-79
2023/12/13 10:23:28;;;;;;;71.55;23.15;;;;;;;;;;5029290;28;20497;-79
2023/12/13 10:25:54;;;;;;;72.97;22.63;;;;;;;;;;5013314;28;20018;-78
2023/12/13 10:28:21;;;;;;;68.85;21.00;;;;;;;;;;5010709;28;20481;-79
2023/12/13 10:30:50;;;;;;;70.28;20.88;;;;;;;;;;5023794;28;20017;-79
2023/12/13 10:33:16;;;;;;;67.53;20.75;;;;;;;;;;5029055;28;20381;-79
2023/12/13 10:35:42;;;;;;;71.93;21.52;;;;;;;;;;5015730;28;20378;-79
2023/12/13 10:38:12;;;;;;;70.70;22.50;;;;;;;;;;5010877;28;20037;-79
2023/12/13 10:40:39;;;;;;;74.00;20.73;;;;;;;;;;5023254;28;20096;-79
2023/12/13 10:43:08;;;;;;;75.70;22.90;;;;;;;;;;5023759;28;20500;-79
2023/12/13 10:45:35;;;;;;;75.55;23.35;;;;;;;;;;5012531;28;20017;-77
2023/12/13 10:48:04;;;;;;;69.47;22.85;;;;;;;;;;5011262;28;20025;-77
2023/12/13 10:50:31;;;;;;;59.58;20.60;;;;;;;;;;5013742;28;20013;-78
2023/12/13 10:52:59;;;;;;;72.82;22.67;;;;;;;;;;5012987;28;20006;-77
2023/12/13 10:55:26;;;;;;;68.88;21.75;;;;;;;;;;5009571;28;20022;-77
2023/12/13 10:57:52;;;;;;;77.68;22.95;;;;;;;;;;5006984;28;20072;-78
2023/12/13 11:00:19;;;;;;;64.82;20.33;;;;;;;;;;5012978;28;20025;-78
2023/12/13 11:02:49;;;;;;;71.15;22.75;;;;;;;;;;5006432;28;20029;-77
2023/12/13 11:05:16;;;;;;;65.10;20.73;;;;;;;;;;5008645;28;20398;-78
2023/12/13 11:07:45;;;;;;;61.55;21.08;;;;;;;;;;5006781;28;20033;-77
2023/12/13 11:10:12;;;;;;;67.18;21.75;;;;;;;;;;5011680;28;20021;-77
2023/12/13 11:12:45;;;;;;;69.75;22.48;;;;;;;;;;5005673;28;20022;-78
2023/12/13 11:15:14;;;;;;;66.38;22.02;;;;;;;;;;5007861;28;20018;-78
2023/12/13 11:17:40;;;;;;;60.63;21.13;;;;;;;;;;5013951;28;20040;-78
2023/12/13 11:20:09;;;;;;;65.63;22.08;;;;;;;;;;5013146;28;20025;-78
2023/12/13 11:22:36;;;;;;;72.38;22.05;;;;;;;;;;5013193;28;20025;-78
2023/12/13 11:25:03;;;;;;;71.10;21.10;;;;;;;;;;5014039;28;20025;-78
2023/12/13 11:27:31;;;;;;;68.55;21.30;;;;;;;;;;5023612;28;20034;-77
2023/12/13 11:29:57;;;;;;;65.22;21.20;;;;;;;;;;5010667;28;20002;-77
2023/12/13 11:32:33;;;;;;;61.85;21.77;;;;;;;;;;5008942;28;20071;-78
2023/12/13 11:34:59;;;;;;;70.55;22.15;;;;;;;;;;5006391;28;20083;-78
2023/12/13 11:37:27;;;;;;;59.58;21.45;;;;;;;;;;5016206;28;20104;-80
2023/12/13 11:39:53;;;;;;;67.38;23.63;;;;;;;;;;5010890;28;20057;-83
2023/12/13 11:42:19;;;;;;;72.78;22.58;;;;;;;;;;5023968;28;20018;-79
2023/12/13 11:44:46;;;;;;;68.13;22.13;;;;;;;;;;5018394;28;20026;-80
2023/12/13 11:47:13;;;;;;;55.72;19.92;;;;;;;;;;5029187;28;20029;-79
2023/12/13 11:49:39;;;;;;;68.68;21.52;;;;;;;;;;5009102;28;20017;-79
2023/12/13 11:52:05;;;;;;;65.35;21.00;;;;;;;;;;5026127;28;20470;-79
2023/12/13 11:54:32;;;;;;;61.08;20.13;;;;;;;;;;5022345;28;20489;-80
2023/12/13 11:56:59;;;;;;;58.08;19.63;;;;;;;;;;5016013;28;20109;-80
2023/12/13 11:59:25;;;;;;;57.58;20.40;;;;;;;;;;5021318;28;20107;-80
2023/12/13 12:01:51;;;;;;;60.58;19.70;;;;;;;;;;5007772;28;20041;-80
2023/12/13 12:04:21;;;;;;;53.67;20.05;;;;;;;;;;5007990;28;20372;-80
2023/12/13 12:06:55;;;;;;;56.47;19.90;;;;;;;;;;5020603;28;20025;-80
2023/12/13 12:09:21;;;;;;;57.13;19.83;;;;;;;;;;5015636;28;20067;-80
2023/12/13 12:11:55;;;;;;;61.55;19.05;;;;;;;;;;5021215;28;20365;-81
2023/12/13 12:14:28;;;;;;;58.45;19.48;;;;;;;;;;5011336;28;20378;-82
2023/12/13 12:16:54;;;;;;;54.53;18.02;;;;;;;;;;5023201;28;20095;-77
2023/12/13 12:19:20;;;;;;;65.53;20.13;;;;;;;;;;5027341;28;20393;-77
2023/12/13 12:21:46;;;;;;;65.15;22.05;;;;;;;;;;5028301;28;20094;-76
2023/12/13 12:24:12;;;;;;;57.38;19.92;;;;;;;;;;5028556;28;20389;-77
2023/12/13 12:26:38;;;;;;;57.35;20.00;;;;;;;;;;5028848;28;20026;-77
2023/12/13 12:29:04;;;;;;;59.92;19.58;;;;;;;;;;5027538;28;20017;-77
2023/12/13 12:31:31;;;;;;;57.22;20.10;;;;;;;;;;5020404;28;20022;-77
2023/12/13 12:33:58;;;;;;;54.00;19.95;;;;;;;;;;5007918;28;20041;-77
2023/12/13 12:36:24;;;;;;;46.53;18.30;;;;;;;;;;5014203;28;20571;-76
2023/12/13 12:38:51;;;;;;;47.92;18.55;;;;;;;;;;5028991;28;20133;-76
2023/12/13 12:41:17;;;;;;;46.97;16.85;;;;;;;;;;5011259;28;20390;-76
2023/12/13 12:43:46;;;;;;;45.65;18.30;;;;;;;;;;5008092;28;20017;-77
2023/12/13 12:46:12;;;;;;;49.33;18.08;;;;;;;;;;5008451;28;20037;-77
2023/12/13 12:48:39;;;;;;;45.92;17.33;;;;;;;;;;4989312;28;20057;-77
2023/12/13 12:51:05;;;;;;;47.25;16.85;;;;;;;;;;5018599;28;20013;-76
2023/12/13 12:53:31;;;;;;;48.75;18.17;;;;;;;;;;5007003;28;20018;-77
2023/12/13 12:55:57;;;;;;;48.97;18.23;;;;;;;;;;5005675;28;20254;-77
2023/12/13 12:58:24;;;;;;;47.55;17.70;;;;;;;;;;5019592;28;20017;-76
2023/12/13 13:00:50;;;;;;;47.30;18.30;;;;;;;;;;5018657;28;20359;-77
2023/12/13 13:03:16;;;;;;;45.63;18.20;;;;;;;;;;5003756;28;20481;-77
2023/12/13 13:05:45;;;;;;;46.20;17.73;;;;;;;;;;5002563;28;20018;-77
2023/12/13 13:08:12;;;;;;;45.60;17.50;;;;;;;;;;5040553;28;20241;-77
2023/12/13 13:10:38;;;;;;;46.50;17.83;;;;;;;;;;5026602;28;20094;-77
2023/12/13 13:13:04;;;;;;;50.17;17.98;;;;;;;;;;5009823;28;20022;-77
2023/12/13 13:15:30;;;;;;;45.70;17.35;;;;;;;;;;5008269;28;20018;-78
2023/12/13 13:17:56;;;;;;;43.75;16.90;;;;;;;;;;5021194;28;20421;-77
2023/12/13 13:20:22;;;;;;;45.67;17.00;;;;;;;;;;5027809;28;20049;-77
2023/12/13 13:22:49;;;;;;;47.75;17.23;;;;;;;;;;5015231;28;20060;-77
2023/12/13 13:25:16;;;;;;;55.63;18.90;;;;;;;;;;5010043;28;20490;-76
2023/12/13 13:27:44;;;;;;;37.50;14.95;;;;;;;;;;5022334;28;20040;-77
2023/12/13 13:30:11;;;;;;;32.78;14.77;;;;;;;;;;5030325;28;20020;-77
2023/12/13 13:32:37;;;;;;;30.58;13.10;;;;;;;;;;5020475;28;20018;-77
2023/12/13 13:35:04;;;;;;;28.52;13.32;;;;;;;;;;5011863;28;20474;-77
2023/12/13 13:37:30;;;;;;;32.58;14.05;;;;;;;;;;5021717;28;20031;-76
2023/12/13 13:39:56;;;;;;;28.60;12.45;;;;;;;;;;5030310;28;20022;-77
2023/12/13 13:42:23;;;;;;;25.80;11.25;;;;;;;;;;5023241;28;20068;-77
2023/12/13 13:44:50;;;;;;;23.60;10.75;;;;;;;;;;5011741;28;20101;-77
2023/12/13 13:47:16;;;;;;;31.35;11.18;;;;;;;;;;5017184;28;20431;-77
2023/12/13 13:49:42;;;;;;;32.85;12.00;;;;;;;;;;5030042;28;20051;-77
2023/12/13 13:52:08;;;;;;;29.27;10.00;;;;;;;;;;5024569;28;20018;-77
2023/12/13 13:54:34;;;;;;;31.25;11.30;;;;;;;;;;5011693;28;20422;-77
2023/12/13 13:57:04;;;;;;;34.50;11.07;;;;;;;;;;5014160;28;20022;-77
2023/12/13 13:59:30;;;;;;;36.50;12.17;;;;;;;;;;5031349;28;20017;-77
2023/12/13 14:01:56;;;;;;;40.65;13.57;;;;;;;;;;5028307;28;20248;-77
2023/12/13 14:04:22;;;;;;;45.47;14.32;;;;;;;;;;5010120;28;20098;-77
2023/12/13 14:06:48;;;;;;;47.10;14.40;;;;;;;;;;5011348;28;20072;-76
2023/12/13 14:09:14;;;;;;;38.95;13.32;;;;;;;;;;5029910;28;20433;-77
2023/12/13 14:11:41;;;;;;;31.48;11.05;;;;;;;;;;5031163;28;20064;-77